Melody — 3FBS7 — position and weather

sailwx.info

Track history (hours):
 
Tides and Currents Weather Stations Pressure Air Temp Water Temp Dewpoint Dewpoint Depression Visibility Wind Speed Wind Dir Waves Ship Positions

Melody

Operator: Mediterranean Shipping Company

Last reported at 2019-Sep-20 03:33 UTC. Time now 2019-Sep-22 00:10 UTC.
Position N 17°01' W 087°25'.

Length 225 m; draft 11.1 m.

Type: Tanker. MMSI: 371669000.

Date/timePositionNaut miles runAvg speedWind from/ knotsBaromVisibWave heightAir tempDewpointWater temp
2019-Sep-20 03:33N 17°01' W 087°25'113.0
2019-Sep-20 03:28N 16°60' W 087°26'1013.1
2019-Sep-20 02:42N 16°51' W 087°31'313.3
2019-Sep-20 02:30N 16°49' W 087°32'713.3
2019-Sep-20 01:58N 16°43' W 087°36'613.3
2019-Sep-20 01:30N 16°37' W 087°40'713.1
2019-Sep-20 00:57N 16°31' W 087°43'613.1
2019-Sep-20 00:30N 16°26' W 087°46'712.9
2019-Sep-19 23:57N 16°20' W 087°50'713.1
2019-Sep-19 23:26N 16°14' W 087°53'613.2
2019-Sep-19 22:59N 16°09' W 087°56'813.5
2019-Sep-19 22:26N 16°02' W 087°59'  
Track history (hours):
 
Tides and Currents Weather Stations Pressure Air Temp Water Temp Dewpoint Dewpoint Depression Visibility Wind Speed Wind Dir Waves Ship Positions

Melody

Operator: Mediterranean Shipping Company

Last reported at 2019-Sep-20 03:33 UTC. Time now 2019-Sep-22 00:10 UTC.
Position N 17°01' W 087°25'.

Length 225 m; draft 11.1 m.

Type: Tanker. MMSI: 371669000.

Date/timePositionNaut miles runAvg speedWind from/ knotsBaromVisibWave heightAir tempDewpointWater temp
2019-Sep-20 03:33N 17°01' W 087°25'113.0
2019-Sep-20 03:28N 16°60' W 087°26'1013.1
2019-Sep-20 02:42N 16°51' W 087°31'313.3
2019-Sep-20 02:30N 16°49' W 087°32'713.3
2019-Sep-20 01:58N 16°43' W 087°36'613.3
2019-Sep-20 01:30N 16°37' W 087°40'713.1
2019-Sep-20 00:57N 16°31' W 087°43'613.1
2019-Sep-20 00:30N 16°26' W 087°46'712.9
2019-Sep-19 23:57N 16°20' W 087°50'713.1
2019-Sep-19 23:26N 16°14' W 087°53'613.2
2019-Sep-19 22:59N 16°09' W 087°56'813.5
2019-Sep-19 22:26N 16°02' W 087°59'  

Dump ship's entire track history